Esler Regional Airport
KESF : now visible

Airfield :











YOU CAN JOIN US ON...

 
LOGIN :

Register | Disclaimer

   EN    FR    IT 

 









Legend :    VFR   Marginal VFR   IFR   Intensive IFR   Very Intensive IFR
Visi :
Ceiling :
>= 8 km
>= 3000ft
5 to 8 km
1000 to 3000 ft
1500m to 5 km
500 to 1000 ft
800 to 1500m
200 to 500 ft
< 800m
< 200 ft
Symbols :   Thunderstorms  Fog  Heavy snow  Heavy precipitations  Wind > 20 kt






- Airport Elevation : 112 ft


KESF - Esler Regional

CURRENT METAR :
  • 190353Z AUTO VRB04KT 10SM FEW016 15/13 A3024 RMK AO2 SLP239 T01500128 $

EXPIRED METARs :
  • 190253Z AUTO VRB03KT 10SM BKN080 16/14 A3023 RMK AO2 SLP237 T01560144 51022 $
  • 190231Z AUTO 00000KT 10SM SCT024 BKN031 OVC080 16/14 A3023 RMK AO2 T01560144 $
  • 190220Z AUTO 00000KT 10SM BKN026 BKN075 16/14 A3023 RMK AO2 T01560144 $
  • 190208Z AUTO 00000KT 10SM SCT026 BKN032 BKN070 16/14 A3023 RMK AO2 T01560144 $
  • 190153Z AUTO 00000KT 10SM BKN026 BKN070 16/14 A3022 RMK AO2 SLP232 T01560144

TAF N/A



MET'MAP, your aeronautical weather chart ! - Copyright ORBIFLY December 2007 - Disclaimer

ORBIFLY MET'MAP TEAM :

Programming & Development : Alexandra Zaïnal
Concept & original design : Baudouin d'Aumeries
Assistance for programming : Marc-Olivier Méhu
Technical & hardware support : Manuel Goepfert

Contact : metmap@orbifly.com




SOURCES & CREDITS :

   NOAA       Earth
Advisory